sensor_id;sensor_type;location;lat;lon;timestamp;temperature;humidity
680;DHT22;322;48.846;9.230;2023-04-08T00:01:31;8.40;91.90
680;DHT22;322;48.846;9.230;2023-04-08T00:03:57;8.40;91.90
680;DHT22;322;48.846;9.230;2023-04-08T00:06:25;8.40;91.80
680;DHT22;322;48.846;9.230;2023-04-08T00:08:52;8.40;92.00
680;DHT22;322;48.846;9.230;2023-04-08T00:11:19;8.30;92.00
680;DHT22;322;48.846;9.230;2023-04-08T00:13:46;8.40;91.90
680;DHT22;322;48.846;9.230;2023-04-08T00:16:13;8.40;91.80
680;DHT22;322;48.846;9.230;2023-04-08T00:18:40;8.40;91.90
680;DHT22;322;48.846;9.230;2023-04-08T00:21:07;8.40;91.80
680;DHT22;322;48.846;9.230;2023-04-08T00:23:35;8.30;91.80
680;DHT22;322;48.846;9.230;2023-04-08T00:26:02;8.30;91.80
680;DHT22;322;48.846;9.230;2023-04-08T00:28:29;8.20;91.90
680;DHT22;322;48.846;9.230;2023-04-08T00:30:56;8.10;92.00
680;DHT22;322;48.846;9.230;2023-04-08T00:33:23;8.10;92.20
680;DHT22;322;48.846;9.230;2023-04-08T00:35:50;8.10;92.10
680;DHT22;322;48.846;9.230;2023-04-08T00:38:17;8.10;92.30
680;DHT22;322;48.846;9.230;2023-04-08T00:40:45;8.10;92.20
680;DHT22;322;48.846;9.230;2023-04-08T00:43:12;8.10;92.20
680;DHT22;322;48.846;9.230;2023-04-08T00:45:41;8.10;92.30
680;DHT22;322;48.846;9.230;2023-04-08T00:48:07;8.00;92.40
680;DHT22;322;48.846;9.230;2023-04-08T00:50:34;8.10;92.50
680;DHT22;322;48.846;9.230;2023-04-08T00:53:01;8.20;92.20
680;DHT22;322;48.846;9.230;2023-04-08T00:55:28;8.20;92.10
680;DHT22;322;48.846;9.230;2023-04-08T00:57:57;8.20;92.20
680;DHT22;322;48.846;9.230;2023-04-08T01:00:24;8.20;92.30
680;DHT22;322;48.846;9.230;2023-04-08T01:02:56;8.20;92.30
680;DHT22;322;48.846;9.230;2023-04-08T01:05:33;8.20;92.30
680;DHT22;322;48.846;9.230;2023-04-08T01:08:04;8.20;92.20
680;DHT22;322;48.846;9.230;2023-04-08T01:10:33;8.10;92.10
680;DHT22;322;48.846;9.230;2023-04-08T01:13:06;8.00;92.20
680;DHT22;322;48.846;9.230;2023-04-08T01:15:36;8.00;92.40
680;DHT22;322;48.846;9.230;2023-04-08T01:18:07;8.00;92.30
680;DHT22;322;48.846;9.230;2023-04-08T01:20:35;8.00;92.30
680;DHT22;322;48.846;9.230;2023-04-08T01:23:08;8.00;92.30
680;DHT22;322;48.846;9.230;2023-04-08T01:25:38;8.00;92.20
680;DHT22;322;48.846;9.230;2023-04-08T01:28:07;8.00;92.30
680;DHT22;322;48.846;9.230;2023-04-08T01:30:37;7.90;92.30
680;DHT22;322;48.846;9.230;2023-04-08T01:33:05;7.90;92.20
680;DHT22;322;48.846;9.230;2023-04-08T01:35:32;7.90;92.30
680;DHT22;322;48.846;9.230;2023-04-08T01:38:00;7.90;92.20
680;DHT22;322;48.846;9.230;2023-04-08T01:40:26;7.90;92.20
680;DHT22;322;48.846;9.230;2023-04-08T01:42:55;7.80;92.20
680;DHT22;322;48.846;9.230;2023-04-08T01:45:24;7.80;92.20
680;DHT22;322;48.846;9.230;2023-04-08T01:47:52;7.90;92.20
680;DHT22;322;48.846;9.230;2023-04-08T01:50:20;7.80;92.10
680;DHT22;322;48.846;9.230;2023-04-08T01:52:48;7.80;92.10
680;DHT22;322;48.846;9.230;2023-04-08T01:55:17;7.90;92.00
680;DHT22;322;48.846;9.230;2023-04-08T01:57:48;7.80;91.90
680;DHT22;322;48.846;9.230;2023-04-08T02:00:23;7.90;92.10
680;DHT22;322;48.846;9.230;2023-04-08T02:02:52;7.90;92.00
680;DHT22;322;48.846;9.230;2023-04-08T02:05:20;7.80;92.20
680;DHT22;322;48.846;9.230;2023-04-08T02:07:46;7.90;92.00
680;DHT22;322;48.846;9.230;2023-04-08T02:10:13;8.00;91.90
680;DHT22;322;48.846;9.230;2023-04-08T02:12:40;8.00;91.70
680;DHT22;322;48.846;9.230;2023-04-08T02:15:08;8.00;91.80
680;DHT22;322;48.846;9.230;2023-04-08T02:17:43;7.90;91.90
680;DHT22;322;48.846;9.230;2023-04-08T02:20:15;7.90;91.90
680;DHT22;322;48.846;9.230;2023-04-08T02:22:47;8.00;92.10
680;DHT22;322;48.846;9.230;2023-04-08T02:25:15;8.00;92.10
680;DHT22;322;48.846;9.230;2023-04-08T02:27:44;8.00;92.10
680;DHT22;322;48.846;9.230;2023-04-08T02:30:11;7.90;92.10
680;DHT22;322;48.846;9.230;2023-04-08T02:32:38;8.00;92.10
680;DHT22;322;48.846;9.230;2023-04-08T02:35:06;8.00;92.10
680;DHT22;322;48.846;9.230;2023-04-08T02:37:35;8.00;92.10
680;DHT22;322;48.846;9.230;2023-04-08T02:40:03;8.00;92.00
680;DHT22;322;48.846;9.230;2023-04-08T02:42:30;8.00;91.90
680;DHT22;322;48.846;9.230;2023-04-08T02:44:56;7.90;91.90
680;DHT22;322;48.846;9.230;2023-04-08T02:47:23;7.80;91.90
680;DHT22;322;48.846;9.230;2023-04-08T02:49:50;7.80;91.90
680;DHT22;322;48.846;9.230;2023-04-08T02:52:19;7.70;92.00
680;DHT22;322;48.846;9.230;2023-04-08T02:54:47;7.70;92.10
680;DHT22;322;48.846;9.230;2023-04-08T02:57:14;7.70;92.70
680;DHT22;322;48.846;9.230;2023-04-08T02:59:41;7.60;92.40
680;DHT22;322;48.846;9.230;2023-04-08T03:02:08;7.60;92.70
680;DHT22;322;48.846;9.230;2023-04-08T03:04:35;7.60;92.70
680;DHT22;322;48.846;9.230;2023-04-08T03:07:01;7.50;92.90
680;DHT22;322;48.846;9.230;2023-04-08T03:09:28;7.50;92.90
680;DHT22;322;48.846;9.230;2023-04-08T03:11:56;7.60;93.10
680;DHT22;322;48.846;9.230;2023-04-08T03:14:23;7.50;93.10
680;DHT22;322;48.846;9.230;2023-04-08T03:16:50;7.60;93.10
680;DHT22;322;48.846;9.230;2023-04-08T03:19:17;7.60;93.10
680;DHT22;322;48.846;9.230;2023-04-08T03:21:43;7.50;93.00
680;DHT22;322;48.846;9.230;2023-04-08T03:24:10;7.50;93.00
680;DHT22;322;48.846;9.230;2023-04-08T03:26:37;7.60;92.90
680;DHT22;322;48.846;9.230;2023-04-08T03:29:05;7.50;92.90
680;DHT22;322;48.846;9.230;2023-04-08T03:31:32;7.60;93.00
680;DHT22;322;48.846;9.230;2023-04-08T03:33:59;7.50;93.10
680;DHT22;322;48.846;9.230;2023-04-08T03:36:26;7.50;93.10
680;DHT22;322;48.846;9.230;2023-04-08T03:38:52;7.50;93.20
680;DHT22;322;48.846;9.230;2023-04-08T03:41:19;7.60;93.10
680;DHT22;322;48.846;9.230;2023-04-08T03:43:46;7.70;93.20
680;DHT22;322;48.846;9.230;2023-04-08T03:46:14;7.70;92.90
680;DHT22;322;48.846;9.230;2023-04-08T03:48:41;7.70;92.90
680;DHT22;322;48.846;9.230;2023-04-08T03:51:08;7.60;93.00
680;DHT22;322;48.846;9.230;2023-04-08T03:53:34;7.70;93.00
680;DHT22;322;48.846;9.230;2023-04-08T03:56:01;7.60;93.00
680;DHT22;322;48.846;9.230;2023-04-08T03:58:29;7.60;93.00
680;DHT22;322;48.846;9.230;2023-04-08T04:00:56;7.50;93.10
680;DHT22;322;48.846;9.230;2023-04-08T04:03:24;7.50;93.20
680;DHT22;322;48.846;9.230;2023-04-08T04:05:51;7.50;93.20
680;DHT22;322;48.846;9.230;2023-04-08T04:08:18;7.50;93.10
680;DHT22;322;48.846;9.230;2023-04-08T04:10:45;7.40;93.10
680;DHT22;322;48.846;9.230;2023-04-08T04:13:12;7.30;93.20
680;DHT22;322;48.846;9.230;2023-04-08T04:15:39;7.30;93.30
680;DHT22;322;48.846;9.230;2023-04-08T04:18:06;7.20;93.40
680;DHT22;322;48.846;9.230;2023-04-08T04:20:34;7.10;93.40
680;DHT22;322;48.846;9.230;2023-04-08T04:23:02;7.00;93.70
680;DHT22;322;48.846;9.230;2023-04-08T04:25:29;6.90;93.90
680;DHT22;322;48.846;9.230;2023-04-08T04:27:56;6.70;94.00
680;DHT22;322;48.846;9.230;2023-04-08T04:30:23;6.70;94.40
680;DHT22;322;48.846;9.230;2023-04-08T04:32:50;6.60;94.50
680;DHT22;322;48.846;9.230;2023-04-08T04:35:17;6.60;94.70
680;DHT22;322;48.846;9.230;2023-04-08T04:37:45;6.50;94.70
680;DHT22;322;48.846;9.230;2023-04-08T04:40:12;6.40;94.70
680;DHT22;322;48.846;9.230;2023-04-08T04:42:39;6.30;94.80
680;DHT22;322;48.846;9.230;2023-04-08T04:45:07;6.20;95.10
680;DHT22;322;48.846;9.230;2023-04-08T04:47:34;6.20;95.20
680;DHT22;322;48.846;9.230;2023-04-08T04:50:01;6.20;95.40
680;DHT22;322;48.846;9.230;2023-04-08T04:52:28;6.20;95.30
680;DHT22;322;48.846;9.230;2023-04-08T04:54:57;6.10;95.30
680;DHT22;322;48.846;9.230;2023-04-08T04:57:24;6.10;95.50
680;DHT22;322;48.846;9.230;2023-04-08T04:59:51;6.00;95.70
680;DHT22;322;48.846;9.230;2023-04-08T05:02:17;6.00;95.90
680;DHT22;322;48.846;9.230;2023-04-08T05:04:45;6.00;95.80
680;DHT22;322;48.846;9.230;2023-04-08T05:07:11;5.90;95.70
680;DHT22;322;48.846;9.230;2023-04-08T05:09:38;6.00;96.10
680;DHT22;322;48.846;9.230;2023-04-08T05:12:06;6.10;96.00
680;DHT22;322;48.846;9.230;2023-04-08T05:14:33;6.10;95.80
680;DHT22;322;48.846;9.230;2023-04-08T05:17:00;6.10;95.70
680;DHT22;322;48.846;9.230;2023-04-08T05:19:26;6.00;95.60
680;DHT22;322;48.846;9.230;2023-04-08T05:21:53;5.90;96.00
680;DHT22;322;48.846;9.230;2023-04-08T05:24:20;6.00;96.20
680;DHT22;322;48.846;9.230;2023-04-08T05:26:47;6.00;96.20
680;DHT22;322;48.846;9.230;2023-04-08T05:29:18;6.10;96.10
680;DHT22;322;48.846;9.230;2023-04-08T05:31:46;6.10;96.30
680;DHT22;322;48.846;9.230;2023-04-08T05:34:13;6.20;96.40
680;DHT22;322;48.846;9.230;2023-04-08T05:36:40;6.40;96.20
680;DHT22;322;48.846;9.230;2023-04-08T05:39:07;6.40;95.70
680;DHT22;322;48.846;9.230;2023-04-08T05:41:33;6.50;95.80
680;DHT22;322;48.846;9.230;2023-04-08T05:44:00;6.60;96.10
680;DHT22;322;48.846;9.230;2023-04-08T05:46:28;6.80;95.50
680;DHT22;322;48.846;9.230;2023-04-08T05:48:55;6.90;95.10
680;DHT22;322;48.846;9.230;2023-04-08T05:51:22;7.00;94.50
680;DHT22;322;48.846;9.230;2023-04-08T05:53:48;7.10;94.40
680;DHT22;322;48.846;9.230;2023-04-08T05:56:15;7.20;94.50
680;DHT22;322;48.846;9.230;2023-04-08T05:58:42;7.30;94.60
680;DHT22;322;48.846;9.230;2023-04-08T06:01:09;7.50;94.40
680;DHT22;322;48.846;9.230;2023-04-08T06:03:37;7.60;94.20
680;DHT22;322;48.846;9.230;2023-04-08T06:06:08;7.80;93.70
680;DHT22;322;48.846;9.230;2023-04-08T06:08:35;7.90;93.20
680;DHT22;322;48.846;9.230;2023-04-08T06:11:02;7.90;92.40
680;DHT22;322;48.846;9.230;2023-04-08T06:13:29;7.90;92.60
680;DHT22;322;48.846;9.230;2023-04-08T06:15:56;8.00;92.60
680;DHT22;322;48.846;9.230;2023-04-08T06:18:23;8.00;92.60
680;DHT22;322;48.846;9.230;2023-04-08T06:20:51;8.20;92.10
680;DHT22;322;48.846;9.230;2023-04-08T06:23:18;8.20;92.10
680;DHT22;322;48.846;9.230;2023-04-08T06:25:44;8.40;91.90
680;DHT22;322;48.846;9.230;2023-04-08T06:28:12;8.40;92.10
680;DHT22;322;48.846;9.230;2023-04-08T06:30:38;8.50;92.00
680;DHT22;322;48.846;9.230;2023-04-08T06:33:05;8.70;91.50
680;DHT22;322;48.846;9.230;2023-04-08T06:35:32;8.90;90.60
680;DHT22;322;48.846;9.230;2023-04-08T06:38:00;8.90;90.50
680;DHT22;322;48.846;9.230;2023-04-08T06:40:26;8.90;90.30
680;DHT22;322;48.846;9.230;2023-04-08T06:42:53;8.60;90.40
680;DHT22;322;48.846;9.230;2023-04-08T06:45:20;8.60;91.00
680;DHT22;322;48.846;9.230;2023-04-08T06:47:47;8.60;91.20
680;DHT22;322;48.846;9.230;2023-04-08T06:50:14;8.60;91.20
680;DHT22;322;48.846;9.230;2023-04-08T06:52:41;8.70;91.30
680;DHT22;322;48.846;9.230;2023-04-08T06:55:09;8.70;90.80
680;DHT22;322;48.846;9.230;2023-04-08T06:57:36;8.60;90.80
680;DHT22;322;48.846;9.230;2023-04-08T07:00:04;8.60;90.70
680;DHT22;322;48.846;9.230;2023-04-08T07:02:31;8.70;90.20
680;DHT22;322;48.846;9.230;2023-04-08T07:04:58;8.80;90.00
680;DHT22;322;48.846;9.230;2023-04-08T07:07:24;9.10;89.40
680;DHT22;322;48.846;9.230;2023-04-08T07:09:51;9.20;88.70
680;DHT22;322;48.846;9.230;2023-04-08T07:12:19;9.30;87.50
680;DHT22;322;48.846;9.230;2023-04-08T07:14:46;9.20;87.50
680;DHT22;322;48.846;9.230;2023-04-08T07:17:13;9.10;87.40
680;DHT22;322;48.846;9.230;2023-04-08T07:19:40;9.10;88.20
680;DHT22;322;48.846;9.230;2023-04-08T07:22:08;9.30;86.80
680;DHT22;322;48.846;9.230;2023-04-08T07:24:35;9.40;86.70
680;DHT22;322;48.846;9.230;2023-04-08T07:27:02;9.50;86.80
680;DHT22;322;48.846;9.230;2023-04-08T07:29:30;9.60;85.90
680;DHT22;322;48.846;9.230;2023-04-08T07:31:56;9.80;83.80
680;DHT22;322;48.846;9.230;2023-04-08T07:34:23;9.80;82.40
680;DHT22;322;48.846;9.230;2023-04-08T07:36:50;9.80;82.10
680;DHT22;322;48.846;9.230;2023-04-08T07:39:17;9.80;83.00
680;DHT22;322;48.846;9.230;2023-04-08T07:41:44;9.80;83.20
680;DHT22;322;48.846;9.230;2023-04-08T07:44:10;9.90;82.30
680;DHT22;322;48.846;9.230;2023-04-08T07:46:42;10.10;79.50
680;DHT22;322;48.846;9.230;2023-04-08T07:49:13;10.10;79.40
680;DHT22;322;48.846;9.230;2023-04-08T07:51:40;10.30;78.50
680;DHT22;322;48.846;9.230;2023-04-08T07:54:07;10.30;77.80
680;DHT22;322;48.846;9.230;2023-04-08T07:56:36;10.50;77.80
680;DHT22;322;48.846;9.230;2023-04-08T07:59:04;10.70;76.50
680;DHT22;322;48.846;9.230;2023-04-08T08:01:31;10.70;76.10
680;DHT22;322;48.846;9.230;2023-04-08T08:04:01;10.70;76.50
680;DHT22;322;48.846;9.230;2023-04-08T08:06:28;10.70;75.20
680;DHT22;322;48.846;9.230;2023-04-08T08:08:56;10.60;76.10
680;DHT22;322;48.846;9.230;2023-04-08T08:11:23;10.50;76.50
680;DHT22;322;48.846;9.230;2023-04-08T08:13:51;10.40;77.40
680;DHT22;322;48.846;9.230;2023-04-08T08:16:18;10.60;77.00
680;DHT22;322;48.846;9.230;2023-04-08T08:18:44;10.60;77.10
680;DHT22;322;48.846;9.230;2023-04-08T08:21:13;10.60;75.40
680;DHT22;322;48.846;9.230;2023-04-08T08:23:40;10.60;76.00
680;DHT22;322;48.846;9.230;2023-04-08T08:26:08;10.70;75.10
680;DHT22;322;48.846;9.230;2023-04-08T08:28:35;10.80;74.20
680;DHT22;322;48.846;9.230;2023-04-08T08:31:02;10.70;72.60
680;DHT22;322;48.846;9.230;2023-04-08T08:33:30;10.70;72.30
680;DHT22;322;48.846;9.230;2023-04-08T08:35:57;10.60;72.30
680;DHT22;322;48.846;9.230;2023-04-08T08:38:25;10.90;73.40
680;DHT22;322;48.846;9.230;2023-04-08T08:40:53;11.20;71.50
680;DHT22;322;48.846;9.230;2023-04-08T08:43:21;11.20;69.90
680;DHT22;322;48.846;9.230;2023-04-08T08:45:49;11.30;69.40
680;DHT22;322;48.846;9.230;2023-04-08T08:48:16;11.20;68.80
680;DHT22;322;48.846;9.230;2023-04-08T08:50:43;11.20;69.90
680;DHT22;322;48.846;9.230;2023-04-08T08:53:10;11.00;69.00
680;DHT22;322;48.846;9.230;2023-04-08T08:55:39;11.10;70.60
680;DHT22;322;48.846;9.230;2023-04-08T08:58:05;11.50;69.90
680;DHT22;322;48.846;9.230;2023-04-08T09:00:33;11.60;67.40
680;DHT22;322;48.846;9.230;2023-04-08T09:03:17;11.60;67.70
680;DHT22;322;48.846;9.230;2023-04-08T09:05:48;11.60;66.10
680;DHT22;322;48.846;9.230;2023-04-08T09:08:28;11.70;66.20
680;DHT22;322;48.846;9.230;2023-04-08T09:11:12;11.80;64.80
680;DHT22;322;48.846;9.230;2023-04-08T09:13:42;11.80;62.80
680;DHT22;322;48.846;9.230;2023-04-08T09:16:10;11.80;63.90
680;DHT22;322;48.846;9.230;2023-04-08T09:18:37;11.80;62.50
680;DHT22;322;48.846;9.230;2023-04-08T09:21:06;11.80;61.10
680;DHT22;322;48.846;9.230;2023-04-08T09:23:37;12.00;61.40
680;DHT22;322;48.846;9.230;2023-04-08T09:26:08;12.10;60.90
680;DHT22;322;48.846;9.230;2023-04-08T09:28:35;12.20;59.80
680;DHT22;322;48.846;9.230;2023-04-08T09:31:20;12.40;59.40
680;DHT22;322;48.846;9.230;2023-04-08T09:33:47;12.70;59.10
680;DHT22;322;48.846;9.230;2023-04-08T09:36:14;12.80;58.60
680;DHT22;322;48.846;9.230;2023-04-08T09:38:41;13.00;58.80
680;DHT22;322;48.846;9.230;2023-04-08T09:41:13;13.40;58.50
680;DHT22;322;48.846;9.230;2023-04-08T09:43:42;13.50;54.10
680;DHT22;322;48.846;9.230;2023-04-08T09:46:14;13.40;53.90
680;DHT22;322;48.846;9.230;2023-04-08T09:48:48;13.10;54.70
680;DHT22;322;48.846;9.230;2023-04-08T09:51:18;13.00;54.70
680;DHT22;322;48.846;9.230;2023-04-08T09:53:47;12.90;52.10
680;DHT22;322;48.846;9.230;2023-04-08T09:56:16;12.70;51.10
680;DHT22;322;48.846;9.230;2023-04-08T09:58:51;12.60;50.90
680;DHT22;322;48.846;9.230;2023-04-08T10:01:25;12.90;51.30
680;DHT22;322;48.846;9.230;2023-04-08T10:03:54;13.40;50.60
680;DHT22;322;48.846;9.230;2023-04-08T10:06:26;13.50;48.60
680;DHT22;322;48.846;9.230;2023-04-08T10:08:55;13.50;50.00
680;DHT22;322;48.846;9.230;2023-04-08T10:11:23;13.30;48.30
680;DHT22;322;48.846;9.230;2023-04-08T10:13:50;13.20;50.00
680;DHT22;322;48.846;9.230;2023-04-08T10:16:19;13.10;51.00
680;DHT22;322;48.846;9.230;2023-04-08T10:18:47;13.10;51.20
680;DHT22;322;48.846;9.230;2023-04-08T10:21:37;13.00;51.40
680;DHT22;322;48.846;9.230;2023-04-08T10:24:08;12.90;51.50
680;DHT22;322;48.846;9.230;2023-04-08T10:26:40;12.50;52.30
680;DHT22;322;48.846;9.230;2023-04-08T10:29:40;12.30;52.30
680;DHT22;322;48.846;9.230;2023-04-08T10:32:07;12.40;54.00
680;DHT22;322;48.846;9.230;2023-04-08T10:34:34;12.40;52.60
680;DHT22;322;48.846;9.230;2023-04-08T10:37:16;12.30;52.10
680;DHT22;322;48.846;9.230;2023-04-08T10:39:48;11.90;52.40
680;DHT22;322;48.846;9.230;2023-04-08T10:42:17;11.60;52.20
680;DHT22;322;48.846;9.230;2023-04-08T10:44:44;11.40;53.30
680;DHT22;322;48.846;9.230;2023-04-08T10:47:11;11.30;53.90
680;DHT22;322;48.846;9.230;2023-04-08T10:49:38;11.40;51.80
680;DHT22;322;48.846;9.230;2023-04-08T10:52:06;11.30;51.10
680;DHT22;322;48.846;9.230;2023-04-08T10:54:33;11.30;52.50
680;DHT22;322;48.846;9.230;2023-04-08T10:57:00;11.30;52.50
680;DHT22;322;48.846;9.230;2023-04-08T10:59:30;11.20;51.50
680;DHT22;322;48.846;9.230;2023-04-08T11:01:57;11.10;53.00
680;DHT22;322;48.846;9.230;2023-04-08T11:04:24;11.20;53.50
680;DHT22;322;48.846;9.230;2023-04-08T11:06:51;11.20;53.50
680;DHT22;322;48.846;9.230;2023-04-08T11:09:18;11.20;54.00
680;DHT22;322;48.846;9.230;2023-04-08T11:11:45;11.20;53.60
680;DHT22;322;48.846;9.230;2023-04-08T11:14:13;11.30;53.60
680;DHT22;322;48.846;9.230;2023-04-08T11:16:43;11.40;53.30
680;DHT22;322;48.846;9.230;2023-04-08T11:19:12;11.50;54.20
680;DHT22;322;48.846;9.230;2023-04-08T11:21:40;11.60;53.10
680;DHT22;322;48.846;9.230;2023-04-08T11:24:09;11.60;53.20
680;DHT22;322;48.846;9.230;2023-04-08T11:26:38;11.60;52.90
680;DHT22;322;48.846;9.230;2023-04-08T11:29:05;11.50;53.00
680;DHT22;322;48.846;9.230;2023-04-08T11:31:34;11.50;52.70
680;DHT22;322;48.846;9.230;2023-04-08T11:34:03;11.40;53.30
680;DHT22;322;48.846;9.230;2023-04-08T11:36:30;11.30;53.00
680;DHT22;322;48.846;9.230;2023-04-08T11:38:59;11.30;52.40
680;DHT22;322;48.846;9.230;2023-04-08T11:41:35;11.20;52.00
680;DHT22;322;48.846;9.230;2023-04-08T11:44:02;11.30;51.40
680;DHT22;322;48.846;9.230;2023-04-08T11:46:30;11.20;51.00
680;DHT22;322;48.846;9.230;2023-04-08T11:48:58;11.20;51.70
680;DHT22;322;48.846;9.230;2023-04-08T11:51:26;11.10;51.90
680;DHT22;322;48.846;9.230;2023-04-08T11:53:53;11.10;51.90
680;DHT22;322;48.846;9.230;2023-04-08T11:56:21;11.20;52.50
680;DHT22;322;48.846;9.230;2023-04-08T11:58:48;11.00;52.30
680;DHT22;322;48.846;9.230;2023-04-08T12:01:15;10.90;53.50
680;DHT22;322;48.846;9.230;2023-04-08T12:03:58;11.10;53.40
680;DHT22;322;48.846;9.230;2023-04-08T12:06:27;11.30;53.20
680;DHT22;322;48.846;9.230;2023-04-08T12:08:56;11.40;52.90
680;DHT22;322;48.846;9.230;2023-04-08T12:11:23;11.30;53.20
680;DHT22;322;48.846;9.230;2023-04-08T12:13:50;11.10;52.60
680;DHT22;322;48.846;9.230;2023-04-08T12:16:18;10.90;53.50
680;DHT22;322;48.846;9.230;2023-04-08T12:18:45;10.80;52.70
680;DHT22;322;48.846;9.230;2023-04-08T12:21:12;10.90;54.70
680;DHT22;322;48.846;9.230;2023-04-08T12:23:40;11.10;53.80
680;DHT22;322;48.846;9.230;2023-04-08T12:26:07;11.30;54.00
680;DHT22;322;48.846;9.230;2023-04-08T12:28:34;11.40;54.40
680;DHT22;322;48.846;9.230;2023-04-08T12:31:01;11.60;53.20
680;DHT22;322;48.846;9.230;2023-04-08T12:33:28;11.70;52.60
680;DHT22;322;48.846;9.230;2023-04-08T12:35:55;11.50;52.50
680;DHT22;322;48.846;9.230;2023-04-08T12:38:23;11.50;53.10
680;DHT22;322;48.846;9.230;2023-04-08T12:40:52;11.50;53.20
680;DHT22;322;48.846;9.230;2023-04-08T12:43:19;11.50;53.30
680;DHT22;322;48.846;9.230;2023-04-08T12:45:49;11.40;55.20
680;DHT22;322;48.846;9.230;2023-04-08T12:48:16;11.70;54.60
680;DHT22;322;48.846;9.230;2023-04-08T12:50:43;11.90;53.70
680;DHT22;322;48.846;9.230;2023-04-08T12:53:10;11.80;54.40
680;DHT22;322;48.846;9.230;2023-04-08T12:55:37;11.60;53.70
680;DHT22;322;48.846;9.230;2023-04-08T12:58:05;11.70;55.30
680;DHT22;322;48.846;9.230;2023-04-08T13:00:32;12.10;55.70
680;DHT22;322;48.846;9.230;2023-04-08T13:02:59;11.90;52.90
680;DHT22;322;48.846;9.230;2023-04-08T13:05:25;11.90;55.00
680;DHT22;322;48.846;9.230;2023-04-08T13:07:52;12.00;54.40
680;DHT22;322;48.846;9.230;2023-04-08T13:10:19;12.20;54.20
680;DHT22;322;48.846;9.230;2023-04-08T13:12:46;12.60;55.40
680;DHT22;322;48.846;9.230;2023-04-08T13:15:14;12.50;52.70
680;DHT22;322;48.846;9.230;2023-04-08T13:17:41;12.40;53.70
680;DHT22;322;48.846;9.230;2023-04-08T13:20:08;12.30;55.20
680;DHT22;322;48.846;9.230;2023-04-08T13:22:36;12.30;54.30
680;DHT22;322;48.846;9.230;2023-04-08T13:25:03;12.10;53.80
680;DHT22;322;48.846;9.230;2023-04-08T13:27:31;12.10;55.30
680;DHT22;322;48.846;9.230;2023-04-08T13:29:57;11.80;54.90
680;DHT22;322;48.846;9.230;2023-04-08T13:32:26;11.60;55.50
680;DHT22;322;48.846;9.230;2023-04-08T13:34:53;11.60;55.60
680;DHT22;322;48.846;9.230;2023-04-08T13:37:20;11.40;55.70
680;DHT22;322;48.846;9.230;2023-04-08T13:39:47;11.40;56.00
680;DHT22;322;48.846;9.230;2023-04-08T13:42:13;11.40;55.70
680;DHT22;322;48.846;9.230;2023-04-08T13:44:40;11.40;55.90
680;DHT22;322;48.846;9.230;2023-04-08T13:47:07;11.70;56.10
680;DHT22;322;48.846;9.230;2023-04-08T13:49:35;11.90;55.50
680;DHT22;322;48.846;9.230;2023-04-08T13:52:02;11.90;56.20
680;DHT22;322;48.846;9.230;2023-04-08T13:54:29;11.70;56.40
680;DHT22;322;48.846;9.230;2023-04-08T13:56:56;11.80;57.30
680;DHT22;322;48.846;9.230;2023-04-08T13:59:23;11.80;55.60
680;DHT22;322;48.846;9.230;2023-04-08T14:01:50;12.20;55.30
680;DHT22;322;48.846;9.230;2023-04-08T14:04:18;12.70;54.10
680;DHT22;322;48.846;9.230;2023-04-08T14:06:47;12.90;52.80
680;DHT22;322;48.846;9.230;2023-04-08T14:09:15;13.00;52.20
680;DHT22;322;48.846;9.230;2023-04-08T14:11:42;13.10;52.40
680;DHT22;322;48.846;9.230;2023-04-08T14:14:09;13.10;52.30
680;DHT22;322;48.846;9.230;2023-04-08T14:16:35;13.10;52.10
680;DHT22;322;48.846;9.230;2023-04-08T14:19:02;12.80;52.20
680;DHT22;322;48.846;9.230;2023-04-08T14:21:29;12.40;52.20
680;DHT22;322;48.846;9.230;2023-04-08T14:23:58;12.10;52.80
680;DHT22;322;48.846;9.230;2023-04-08T14:26:25;12.00;53.70
680;DHT22;322;48.846;9.230;2023-04-08T14:28:52;12.00;53.60
680;DHT22;322;48.846;9.230;2023-04-08T14:31:19;12.10;53.10
680;DHT22;322;48.846;9.230;2023-04-08T14:33:46;12.10;53.60
680;DHT22;322;48.846;9.230;2023-04-08T14:36:13;12.00;53.20
680;DHT22;322;48.846;9.230;2023-04-08T14:38:40;11.90;53.10
680;DHT22;322;48.846;9.230;2023-04-08T14:41:08;11.70;53.30
680;DHT22;322;48.846;9.230;2023-04-08T14:43:34;11.60;53.20
680;DHT22;322;48.846;9.230;2023-04-08T14:46:01;11.40;54.20
680;DHT22;322;48.846;9.230;2023-04-08T14:48:28;11.30;53.90
680;DHT22;322;48.846;9.230;2023-04-08T14:50:55;11.30;54.40
680;DHT22;322;48.846;9.230;2023-04-08T14:53:22;11.30;54.90
680;DHT22;322;48.846;9.230;2023-04-08T14:55:49;11.50;54.20
680;DHT22;322;48.846;9.230;2023-04-08T14:58:18;11.50;54.20
680;DHT22;322;48.846;9.230;2023-04-08T15:00:45;11.60;54.60
680;DHT22;322;48.846;9.230;2023-04-08T15:03:12;11.60;53.50
680;DHT22;322;48.846;9.230;2023-04-08T15:05:39;11.50;54.20
680;DHT22;322;48.846;9.230;2023-04-08T15:08:07;11.50;54.50
680;DHT22;322;48.846;9.230;2023-04-08T15:10:34;11.50;54.30
680;DHT22;322;48.846;9.230;2023-04-08T15:13:01;11.40;55.70
680;DHT22;322;48.846;9.230;2023-04-08T15:15:29;11.50;56.10
680;DHT22;322;48.846;9.230;2023-04-08T15:17:56;11.60;56.80
680;DHT22;322;48.846;9.230;2023-04-08T15:20:23;11.50;56.80
680;DHT22;322;48.846;9.230;2023-04-08T15:22:49;11.40;56.10
680;DHT22;322;48.846;9.230;2023-04-08T15:25:16;11.20;56.60
680;DHT22;322;48.846;9.230;2023-04-08T15:27:43;11.10;57.30
680;DHT22;322;48.846;9.230;2023-04-08T15:30:11;11.10;57.10
680;DHT22;322;48.846;9.230;2023-04-08T15:32:39;11.10;57.40
680;DHT22;322;48.846;9.230;2023-04-08T15:35:07;11.10;59.20
680;DHT22;322;48.846;9.230;2023-04-08T15:37:34;11.10;57.40
680;DHT22;322;48.846;9.230;2023-04-08T15:40:01;11.00;58.40
680;DHT22;322;48.846;9.230;2023-04-08T15:42:28;11.00;58.90
680;DHT22;322;48.846;9.230;2023-04-08T15:44:55;11.10;58.70
680;DHT22;322;48.846;9.230;2023-04-08T15:47:22;11.20;58.20
680;DHT22;322;48.846;9.230;2023-04-08T15:49:52;11.30;58.70
680;DHT22;322;48.846;9.230;2023-04-08T15:52:20;11.30;58.40
680;DHT22;322;48.846;9.230;2023-04-08T15:54:47;11.40;59.70
680;DHT22;322;48.846;9.230;2023-04-08T15:57:13;11.60;58.10
680;DHT22;322;48.846;9.230;2023-04-08T15:59:41;11.70;56.90
680;DHT22;322;48.846;9.230;2023-04-08T16:02:07;11.80;57.50
680;DHT22;322;48.846;9.230;2023-04-08T16:04:34;12.10;57.00
680;DHT22;322;48.846;9.230;2023-04-08T16:07:02;12.30;56.40
680;DHT22;322;48.846;9.230;2023-04-08T16:09:29;12.30;55.90
680;DHT22;322;48.846;9.230;2023-04-08T16:11:56;12.30;57.10
680;DHT22;322;48.846;9.230;2023-04-08T16:14:24;12.10;58.00
680;DHT22;322;48.846;9.230;2023-04-08T16:16:51;12.00;57.70
680;DHT22;322;48.846;9.230;2023-04-08T16:19:17;12.00;58.00
680;DHT22;322;48.846;9.230;2023-04-08T16:21:46;11.80;58.50
680;DHT22;322;48.846;9.230;2023-04-08T16:24:14;11.50;59.30
680;DHT22;322;48.846;9.230;2023-04-08T16:26:40;11.40;60.00
680;DHT22;322;48.846;9.230;2023-04-08T16:29:08;11.20;60.50
680;DHT22;322;48.846;9.230;2023-04-08T16:31:35;11.10;60.60
680;DHT22;322;48.846;9.230;2023-04-08T16:34:02;11.00;61.30
680;DHT22;322;48.846;9.230;2023-04-08T16:36:29;11.00;62.60
680;DHT22;322;48.846;9.230;2023-04-08T16:38:56;10.90;61.10
680;DHT22;322;48.846;9.230;2023-04-08T16:41:24;10.90;62.60
680;DHT22;322;48.846;9.230;2023-04-08T16:43:51;10.80;60.90
680;DHT22;322;48.846;9.230;2023-04-08T16:46:18;10.70;61.80